createdAt,value
2022-12-23T00:00:28.831Z,0.70
2022-12-23T00:02:59.337Z,0.70
2022-12-23T00:05:31.368Z,0.60
2022-12-23T00:08:04.632Z,0.60
2022-12-23T00:10:32.656Z,0.60
2022-12-23T00:13:19.526Z,1.00
2022-12-23T00:15:47.329Z,0.60
2022-12-23T00:18:15.944Z,0.50
2022-12-23T00:20:43.688Z,0.50
2022-12-23T00:23:11.392Z,0.60
2022-12-23T00:25:44.673Z,0.70
2022-12-23T00:28:17.429Z,0.57
2022-12-23T00:30:49.748Z,0.73
2022-12-23T00:33:19.269Z,0.50
2022-12-23T00:35:47.835Z,0.52
2022-12-23T00:38:16.253Z,0.63
2022-12-23T00:41:01.794Z,0.50
2022-12-23T00:43:31.402Z,0.47
2022-12-23T00:45:59.442Z,0.93
2022-12-23T00:48:44.846Z,0.60
2022-12-23T00:51:14.641Z,0.88
2022-12-23T00:53:42.477Z,0.60
2022-12-23T00:56:10.401Z,0.70
2022-12-23T00:58:39.647Z,0.55
2022-12-23T01:01:25.229Z,0.82
2022-12-23T01:04:10.618Z,0.65
2022-12-23T01:06:41.107Z,0.60
2022-12-23T01:09:08.982Z,0.40
2022-12-23T01:11:38.016Z,0.50
2022-12-23T01:14:09.353Z,0.40
2022-12-23T01:16:39.322Z,0.52
2022-12-23T01:19:07.970Z,0.60
2022-12-23T01:21:38.599Z,0.50
2022-12-23T01:24:07.168Z,0.40
2022-12-23T01:26:35.087Z,0.52
2022-12-23T01:29:03.317Z,0.82
2022-12-23T01:31:32.898Z,0.60
2022-12-23T01:34:00.880Z,0.52
2022-12-23T01:36:28.774Z,0.60
2022-12-23T01:38:58.583Z,0.50
2022-12-23T01:41:45.745Z,0.50
2022-12-23T01:44:52.828Z,0.60
2022-12-23T01:47:27.416Z,0.73
2022-12-23T01:50:03.583Z,0.70
2022-12-23T01:52:35.125Z,0.80
2022-12-23T01:55:03.112Z,0.60
2022-12-23T01:57:31.180Z,0.60
2022-12-23T02:00:28.059Z,0.80
2022-12-23T02:03:14.915Z,0.70
2022-12-23T02:05:45.901Z,0.50
2022-12-23T02:08:32.958Z,0.60
2022-12-23T02:11:35.416Z,0.60
2022-12-23T02:14:40.156Z,0.50
2022-12-23T02:17:15.954Z,0.52
2022-12-23T02:20:22.213Z,0.77
2022-12-23T02:23:08.857Z,0.60
2022-12-23T02:25:55.510Z,0.80
2022-12-23T02:28:47.218Z,0.70
2022-12-23T02:31:23.123Z,0.60
2022-12-23T02:33:57.512Z,1.10
2022-12-23T02:36:39.032Z,0.70
2022-12-23T02:39:10.742Z,0.50
2022-12-23T02:41:45.855Z,0.73
2022-12-23T02:44:28.618Z,1.00
2022-12-23T02:47:01.920Z,0.70
2022-12-23T02:49:34.455Z,0.82
2022-12-23T02:52:11.291Z,0.80
2022-12-23T02:54:47.250Z,0.57
2022-12-23T02:57:18.764Z,1.20
2022-12-23T02:59:51.575Z,0.98
2022-12-23T03:02:24.047Z,0.60
2022-12-23T03:07:33.000Z,0.60
2022-12-23T03:10:08.189Z,0.50
2022-12-23T03:12:51.033Z,0.80
2022-12-23T03:18:02.357Z,0.65
2022-12-23T03:20:36.443Z,0.52
2022-12-23T03:23:12.487Z,0.85
2022-12-23T03:25:46.724Z,0.90
2022-12-23T03:28:18.403Z,0.70
2022-12-23T03:30:51.901Z,0.90
2022-12-23T03:33:28.044Z,0.60
2022-12-23T03:36:00.579Z,0.60
2022-12-23T03:38:32.003Z,0.80
2022-12-23T03:41:06.490Z,1.00
2022-12-23T03:43:43.489Z,0.50
2022-12-23T03:46:19.015Z,0.70
2022-12-23T03:48:51.827Z,0.70
2022-12-23T03:51:23.837Z,0.65
2022-12-23T03:53:55.577Z,0.73
2022-12-23T03:56:29.399Z,0.70
2022-12-23T03:59:00.409Z,0.70
2022-12-23T04:01:34.331Z,0.93
2022-12-23T04:04:08.235Z,0.73
2022-12-23T04:06:42.218Z,0.85
2022-12-23T04:09:16.664Z,0.80
2022-12-23T04:11:48.814Z,0.80
2022-12-23T04:14:19.178Z,0.88
2022-12-23T04:16:47.950Z,0.60
2022-12-23T04:19:17.647Z,0.90
2022-12-23T04:21:46.789Z,0.70
2022-12-23T04:24:14.581Z,0.73
2022-12-23T04:26:42.527Z,0.80
2022-12-23T04:29:10.397Z,0.90
2022-12-23T04:31:38.317Z,1.00
2022-12-23T04:34:06.400Z,0.90
2022-12-23T04:36:36.841Z,0.95
2022-12-23T04:39:04.776Z,0.63
2022-12-23T04:41:32.587Z,0.70
2022-12-23T04:44:00.493Z,0.73
2022-12-23T04:46:28.471Z,0.70
2022-12-23T04:48:56.310Z,0.70
2022-12-23T04:51:24.332Z,0.60
2022-12-23T04:53:55.861Z,0.63
2022-12-23T04:56:23.605Z,0.60
2022-12-23T04:58:51.549Z,0.73
2022-12-23T05:01:19.480Z,1.13
2022-12-23T05:03:49.267Z,1.00
2022-12-23T05:06:20.002Z,1.27
2022-12-23T05:08:48.052Z,1.17
2022-12-23T05:11:48.869Z,1.30
2022-12-23T05:14:18.725Z,1.50
2022-12-23T05:16:48.596Z,6.68
2022-12-23T05:19:16.914Z,6.50
2022-12-23T05:21:47.230Z,5.80
2022-12-23T05:24:14.981Z,5.20
2022-12-23T05:26:47.806Z,11.40
2022-12-23T05:29:20.312Z,9.32
2022-12-23T05:31:48.264Z,7.97
2022-12-23T05:34:16.086Z,5.40
2022-12-23T05:36:43.944Z,5.28
2022-12-23T05:39:11.770Z,6.38
2022-12-23T05:41:40.621Z,9.20
2022-12-23T05:44:09.888Z,4.50
2022-12-23T05:46:37.935Z,3.15
2022-12-23T05:49:06.998Z,2.55
2022-12-23T05:51:34.806Z,1.40
2022-12-23T05:54:02.759Z,1.15
2022-12-23T05:56:30.665Z,2.38
2022-12-23T05:58:59.711Z,1.70
2022-12-23T06:01:30.027Z,1.27
2022-12-23T06:03:58.057Z,1.30
2022-12-23T06:06:28.749Z,1.05
2022-12-23T06:08:59.889Z,1.20
2022-12-23T06:11:28.174Z,1.33
2022-12-23T06:13:56.005Z,3.40
2022-12-23T06:16:27.864Z,1.52
2022-12-23T06:18:57.667Z,1.27
2022-12-23T06:21:26.651Z,1.35
2022-12-23T06:23:54.461Z,1.23
2022-12-23T06:26:22.257Z,1.00
2022-12-23T06:28:50.144Z,1.63
2022-12-23T06:31:18.287Z,3.35
2022-12-23T06:33:46.372Z,1.17
2022-12-23T06:36:15.604Z,0.90
2022-12-23T06:38:43.517Z,1.40
2022-12-23T06:41:11.313Z,1.42
2022-12-23T06:43:41.639Z,1.40
2022-12-23T06:46:09.580Z,1.40
2022-12-23T06:48:37.310Z,1.80
2022-12-23T06:51:06.697Z,1.98
2022-12-23T06:53:35.995Z,1.98
2022-12-23T06:56:07.313Z,2.45
2022-12-23T06:58:35.145Z,2.03
2022-12-23T07:01:02.976Z,1.90
2022-12-23T07:03:30.981Z,2.30
2022-12-23T07:06:00.095Z,2.20
2022-12-23T07:08:27.890Z,2.10
2022-12-23T07:11:00.637Z,2.00
2022-12-23T07:13:28.644Z,2.90
2022-12-23T07:15:57.180Z,1.95
2022-12-23T07:18:27.123Z,2.30
2022-12-23T07:20:54.987Z,2.75
2022-12-23T07:23:34.746Z,3.85
2022-12-23T07:26:03.971Z,12.18
2022-12-23T07:28:32.077Z,5.55
2022-12-23T07:31:09.614Z,5.65
2022-12-23T07:33:37.564Z,8.50
2022-12-23T07:36:09.314Z,4.07
2022-12-23T07:38:43.491Z,3.00
2022-12-23T07:41:18.410Z,3.00
2022-12-23T07:43:49.746Z,2.60
2022-12-23T07:46:22.112Z,3.35
2022-12-23T07:48:53.920Z,5.40
2022-12-23T07:51:25.286Z,5.20
2022-12-23T07:53:53.307Z,3.15
2022-12-23T07:56:22.691Z,2.60
2022-12-23T07:59:09.276Z,1.50
2022-12-23T08:01:38.353Z,1.50
2022-12-23T08:04:06.279Z,1.95
2022-12-23T08:06:37.480Z,1.80
2022-12-23T08:09:12.628Z,2.20
2022-12-23T08:11:56.733Z,2.00
2022-12-23T08:14:24.580Z,2.60
2022-12-23T08:16:52.538Z,2.30
2022-12-23T08:19:33.444Z,2.00
2022-12-23T08:22:01.434Z,2.13
2022-12-23T08:24:33.069Z,1.90
2022-12-23T08:27:02.264Z,2.17
2022-12-23T08:29:36.078Z,3.10
2022-12-23T08:32:06.620Z,3.70
2022-12-23T08:34:34.673Z,3.78
2022-12-23T08:37:05.185Z,3.05
2022-12-23T08:39:33.226Z,3.33
2022-12-23T08:42:04.381Z,3.67
2022-12-23T08:44:32.707Z,3.83
2022-12-23T08:47:04.968Z,3.42
2022-12-23T08:49:35.220Z,2.75
2022-12-23T08:52:03.664Z,3.40
2022-12-23T08:54:31.476Z,3.00
2022-12-23T08:56:59.422Z,2.42
2022-12-23T08:59:30.314Z,2.50
2022-12-23T09:01:59.810Z,4.25
2022-12-23T09:04:27.928Z,2.33
2022-12-23T09:06:58.446Z,2.15
2022-12-23T09:09:28.510Z,2.20
2022-12-23T09:11:59.014Z,2.13
2022-12-23T09:14:40.067Z,1.65
2022-12-23T09:17:08.071Z,1.50
2022-12-23T09:19:38.349Z,1.50
2022-12-23T09:22:06.176Z,1.83
2022-12-23T09:24:34.080Z,2.60
2022-12-23T09:27:01.983Z,2.83
2022-12-23T09:29:31.309Z,4.03
2022-12-23T09:31:59.117Z,4.45
2022-12-23T09:34:27.777Z,3.72
2022-12-23T09:36:55.752Z,2.83
2022-12-23T09:39:24.270Z,2.60
2022-12-23T09:42:06.208Z,3.90
2022-12-23T09:45:04.729Z,7.27
2022-12-23T09:47:34.275Z,7.07
2022-12-23T09:50:05.543Z,8.15
2022-12-23T09:52:43.055Z,5.88
2022-12-23T09:55:12.725Z,6.20
2022-12-23T09:57:51.009Z,5.13
2022-12-23T10:00:21.117Z,4.20
2022-12-23T10:03:06.535Z,3.55
2022-12-23T10:05:45.957Z,2.65
2022-12-23T10:08:18.128Z,4.20
2022-12-23T10:10:49.456Z,4.70
2022-12-23T10:13:27.671Z,4.28
2022-12-23T10:16:03.413Z,3.80
2022-12-23T10:18:42.843Z,3.75
2022-12-23T10:21:15.920Z,2.50
2022-12-23T10:23:51.404Z,2.67
2022-12-23T10:26:27.775Z,2.75
2022-12-23T10:29:01.499Z,2.20
2022-12-23T10:31:44.308Z,1.90
2022-12-23T10:36:54.188Z,1.73
2022-12-23T10:39:52.719Z,1.90
2022-12-23T10:42:29.870Z,1.80
2022-12-23T10:45:27.269Z,1.75
2022-12-23T10:48:13.992Z,1.90
2022-12-23T10:51:43.451Z,1.63
2022-12-23T10:57:23.506Z,1.25
2022-12-23T11:00:02.389Z,1.38
2022-12-23T11:02:56.589Z,1.60
2022-12-23T11:06:16.915Z,1.38
2022-12-23T11:09:02.917Z,1.80
2022-12-23T11:11:55.391Z,2.00
2022-12-23T11:14:40.250Z,1.38
2022-12-23T11:17:22.076Z,1.73
2022-12-23T11:20:06.643Z,1.95
2022-12-23T11:22:34.549Z,2.28
2022-12-23T11:25:26.866Z,2.58
2022-12-23T11:27:57.424Z,2.60
2022-12-23T11:30:25.810Z,2.22
2022-12-23T11:32:54.026Z,2.40
2022-12-23T11:35:27.235Z,2.40
2022-12-23T11:37:55.479Z,1.95
2022-12-23T11:40:31.205Z,1.92
2022-12-23T11:43:02.808Z,2.33
2022-12-23T11:45:34.155Z,3.03
2022-12-23T11:48:03.382Z,2.88
2022-12-23T11:50:37.407Z,2.60
2022-12-23T11:53:13.062Z,2.63
2022-12-23T11:55:53.779Z,3.08
2022-12-23T11:59:56.133Z,2.67
2022-12-23T12:07:09.271Z,2.50
2022-12-23T12:13:59.648Z,2.20
2022-12-23T12:17:15.881Z,1.98
2022-12-23T12:20:12.811Z,2.08
2022-12-23T12:22:48.230Z,1.98
2022-12-23T12:25:21.457Z,1.65
2022-12-23T12:27:56.979Z,1.27
2022-12-23T12:30:33.403Z,1.27
2022-12-23T12:33:06.891Z,1.98
2022-12-23T12:35:53.647Z,1.70
2022-12-23T12:38:26.916Z,1.70
2022-12-23T12:43:30.170Z,1.63
2022-12-23T12:46:12.685Z,1.70
2022-12-23T12:48:58.790Z,1.95
2022-12-23T12:51:48.874Z,1.20
2022-12-23T12:54:54.026Z,1.65
2022-12-23T12:57:47.360Z,1.20
2022-12-23T13:00:36.741Z,1.20
2022-12-23T13:03:31.836Z,1.30
2022-12-23T13:06:21.112Z,0.95
2022-12-23T13:09:10.999Z,1.00
2022-12-23T13:12:07.627Z,1.02
2022-12-23T13:15:48.188Z,1.20
2022-12-23T13:18:31.871Z,1.10
2022-12-23T13:21:11.647Z,1.50
2022-12-23T13:24:24.227Z,1.55
2022-12-23T13:27:04.009Z,1.10
2022-12-23T13:29:51.943Z,0.95
2022-12-23T13:32:52.105Z,1.03
2022-12-23T13:35:37.105Z,1.00
2022-12-23T13:41:36.914Z,2.15
2022-12-23T13:44:10.979Z,1.48
2022-12-23T13:46:46.702Z,1.15
2022-12-23T13:49:26.127Z,1.55
2022-12-23T13:52:07.422Z,1.52
2022-12-23T13:54:47.832Z,1.70
2022-12-23T13:57:27.827Z,1.65
2022-12-23T14:00:05.971Z,1.88
2022-12-23T14:02:52.547Z,2.03
2022-12-23T14:05:38.825Z,1.80
2022-12-23T14:08:21.308Z,1.65
2022-12-23T14:10:53.120Z,1.67
2022-12-23T14:13:33.034Z,1.90
2022-12-23T14:16:24.273Z,3.25
2022-12-23T14:19:33.690Z,1.90
2022-12-23T14:22:13.976Z,2.00
2022-12-23T14:25:14.299Z,1.50
2022-12-23T14:27:57.845Z,1.63
2022-12-23T14:30:41.058Z,1.35
2022-12-23T14:33:17.053Z,1.10
2022-12-23T14:35:58.778Z,1.30
2022-12-23T14:38:34.492Z,1.48
2022-12-23T14:42:03.453Z,1.73
2022-12-23T14:45:00.761Z,1.42
2022-12-23T14:47:50.209Z,1.13
2022-12-23T14:50:42.243Z,1.85
2022-12-23T14:53:25.138Z,1.45
2022-12-23T14:58:30.104Z,1.25
2022-12-23T15:01:03.450Z,1.65
2022-12-23T15:03:35.326Z,1.50
2022-12-23T15:06:07.145Z,1.30
2022-12-23T15:08:40.103Z,1.65
2022-12-23T15:11:10.512Z,1.50
2022-12-23T15:13:38.754Z,1.60
2022-12-23T15:16:08.667Z,1.60
2022-12-23T15:18:36.549Z,1.20
2022-12-23T15:21:12.401Z,1.63
2022-12-23T15:23:49.692Z,1.70
2022-12-23T15:26:18.171Z,1.30
2022-12-23T15:28:46.026Z,1.30
2022-12-23T15:31:28.065Z,1.30
2022-12-23T15:34:07.794Z,1.30
2022-12-23T15:36:40.443Z,1.10
2022-12-23T15:39:10.957Z,0.98
2022-12-23T15:41:45.926Z,1.33
2022-12-23T15:44:18.180Z,0.80
2022-12-23T15:47:02.842Z,1.50
2022-12-23T15:49:33.207Z,1.60
2022-12-23T15:52:11.011Z,2.25
2022-12-23T15:54:59.884Z,1.30
2022-12-23T15:57:34.466Z,1.10
2022-12-23T16:00:06.264Z,1.50
2022-12-23T16:05:28.056Z,1.30
2022-12-23T16:08:11.341Z,1.27
2022-12-23T16:10:57.789Z,1.50
2022-12-23T16:13:28.116Z,1.25
2022-12-23T16:15:56.046Z,1.45
2022-12-23T16:18:32.707Z,1.33
2022-12-23T16:21:04.021Z,1.55
2022-12-23T16:23:34.290Z,1.70
2022-12-23T16:26:03.708Z,1.70
2022-12-23T16:28:39.585Z,1.20
2022-12-23T16:31:08.960Z,1.10
2022-12-23T16:33:46.033Z,1.25
2022-12-23T16:36:18.834Z,1.33
2022-12-23T16:38:47.548Z,1.60
2022-12-23T16:41:15.841Z,1.60
2022-12-23T16:43:52.009Z,1.30
2022-12-23T16:46:23.108Z,1.27
2022-12-23T16:48:55.587Z,1.15
2022-12-23T16:53:56.352Z,2.55
2022-12-23T16:56:25.702Z,1.55
2022-12-23T16:58:55.403Z,1.40
2022-12-23T17:01:25.406Z,1.75
2022-12-23T17:03:55.933Z,1.67
2022-12-23T17:06:29.233Z,1.70
2022-12-23T17:09:03.721Z,1.80
2022-12-23T17:11:38.272Z,1.50
2022-12-23T17:14:10.520Z,1.10
2022-12-23T17:16:48.533Z,1.40
2022-12-23T17:19:27.338Z,1.67
2022-12-23T17:22:50.759Z,1.35
2022-12-23T17:25:26.760Z,1.85
2022-12-23T17:27:56.356Z,1.77
2022-12-23T17:30:29.964Z,2.08
2022-12-23T17:33:01.584Z,1.25
2022-12-23T17:35:36.110Z,1.27
2022-12-23T17:38:04.088Z,1.30
2022-12-23T17:40:33.867Z,1.50
2022-12-23T17:43:01.665Z,1.13
2022-12-23T17:45:31.851Z,1.30
2022-12-23T17:48:01.974Z,1.20
2022-12-23T17:50:34.914Z,1.15
2022-12-23T17:53:02.785Z,1.20
2022-12-23T17:55:30.586Z,0.80
2022-12-23T17:58:01.129Z,0.80
2022-12-23T18:00:34.200Z,1.73
2022-12-23T18:03:02.321Z,1.05
2022-12-23T18:05:35.749Z,1.50
2022-12-23T18:08:06.955Z,2.50
2022-12-23T18:10:44.427Z,1.70
2022-12-23T18:13:24.052Z,1.88
2022-12-23T18:15:52.591Z,1.40
2022-12-23T18:18:27.575Z,1.60
2022-12-23T18:20:59.195Z,1.63
2022-12-23T18:23:32.307Z,1.80
2022-12-23T18:26:01.014Z,1.80
2022-12-23T18:28:28.928Z,1.83
2022-12-23T18:30:59.911Z,1.98
2022-12-23T18:33:29.409Z,2.20
2022-12-23T18:35:58.579Z,2.10
2022-12-23T18:38:27.699Z,2.38
2022-12-23T18:40:56.642Z,2.50
2022-12-23T18:43:26.629Z,2.30
2022-12-23T18:45:54.543Z,2.67
2022-12-23T18:48:22.737Z,2.50
2022-12-23T18:50:50.474Z,2.60
2022-12-23T18:53:24.538Z,2.08
2022-12-23T18:55:53.384Z,2.20
2022-12-23T18:58:21.410Z,2.45
2022-12-23T19:00:51.035Z,2.30
2022-12-23T19:03:23.271Z,2.45
2022-12-23T19:05:54.689Z,2.00
2022-12-23T19:08:28.058Z,2.28
2022-12-23T19:11:13.637Z,2.10
2022-12-23T19:13:43.904Z,1.90
2022-12-23T19:16:21.566Z,2.72
2022-12-23T19:18:50.323Z,2.45
2022-12-23T19:21:19.506Z,2.30
2022-12-23T19:23:48.534Z,1.98
2022-12-23T19:26:24.008Z,1.40
2022-12-23T19:28:58.168Z,2.33
2022-12-23T19:31:25.969Z,2.80
2022-12-23T19:33:55.878Z,1.70
2022-12-23T19:36:28.780Z,1.88
2022-12-23T19:38:59.028Z,1.70
2022-12-23T19:41:26.889Z,1.58
2022-12-23T19:43:54.651Z,3.03
2022-12-23T19:46:23.957Z,2.10
2022-12-23T19:48:53.050Z,1.63
2022-12-23T19:51:23.658Z,1.48
2022-12-23T19:53:55.064Z,1.50
2022-12-23T19:56:41.216Z,1.20
2022-12-23T19:59:09.072Z,1.05
2022-12-23T20:01:38.542Z,1.40
2022-12-23T20:04:10.996Z,1.80
2022-12-23T20:06:46.445Z,1.50
2022-12-23T20:09:20.313Z,2.03
2022-12-23T20:11:54.222Z,2.42
2022-12-23T20:14:33.766Z,2.90
2022-12-23T20:17:02.163Z,1.70
2022-12-23T20:19:46.153Z,4.28
2022-12-23T20:22:19.002Z,2.70
2022-12-23T20:24:49.621Z,2.65
2022-12-23T20:27:27.652Z,1.20
2022-12-23T20:29:56.082Z,2.78
2022-12-23T20:32:23.991Z,2.15
2022-12-23T20:34:51.935Z,1.20
2022-12-23T20:37:19.781Z,1.17
2022-12-23T20:39:47.549Z,1.20
2022-12-23T20:42:23.415Z,1.20
2022-12-23T20:44:55.843Z,1.63
2022-12-23T20:47:23.577Z,1.73
2022-12-23T20:49:51.253Z,1.85
2022-12-23T20:52:19.099Z,1.42
2022-12-23T20:54:47.045Z,2.03
2022-12-23T20:57:14.804Z,1.38
2022-12-23T20:59:43.953Z,1.48
2022-12-23T21:02:26.407Z,1.80
2022-12-23T21:04:54.283Z,1.48
2022-12-23T21:07:22.082Z,1.88
2022-12-23T21:09:52.801Z,1.85
2022-12-23T21:12:20.644Z,1.88
2022-12-23T21:14:49.698Z,1.40
2022-12-23T21:17:23.914Z,1.52
2022-12-23T21:19:54.119Z,1.50
2022-12-23T21:22:21.943Z,1.60
2022-12-23T21:24:49.699Z,1.75
2022-12-23T21:27:19.990Z,1.60
2022-12-23T21:29:57.382Z,1.40
2022-12-23T21:32:33.874Z,1.40
2022-12-23T21:35:02.975Z,1.40
2022-12-23T21:37:33.434Z,1.70
2022-12-23T21:40:01.419Z,1.35
2022-12-23T21:42:37.941Z,1.48
2022-12-23T21:45:18.053Z,1.65
2022-12-23T21:47:51.485Z,1.30
2022-12-23T21:50:33.811Z,1.20
2022-12-23T21:53:04.031Z,0.90
2022-12-23T21:55:47.093Z,1.23
2022-12-23T21:58:17.231Z,2.30
2022-12-23T22:01:16.387Z,1.10
2022-12-23T22:03:47.464Z,1.60
2022-12-23T22:06:22.090Z,1.30
2022-12-23T22:09:07.071Z,1.30
2022-12-23T22:11:42.363Z,1.17
2022-12-23T22:14:14.583Z,1.30
2022-12-23T22:16:47.322Z,1.42
2022-12-23T22:19:20.429Z,1.20
2022-12-23T22:23:08.994Z,1.95
2022-12-23T22:24:39.222Z,1.13
2022-12-23T22:27:08.389Z,1.15
2022-12-23T22:29:45.436Z,1.35
2022-12-23T22:32:23.413Z,1.35
2022-12-23T22:34:51.347Z,1.20
2022-12-23T22:37:25.892Z,1.70
2022-12-23T22:39:56.603Z,1.60
2022-12-23T22:42:24.658Z,1.80
2022-12-23T22:44:53.851Z,1.33
2022-12-23T22:47:23.392Z,1.30
2022-12-23T22:49:51.366Z,1.48
2022-12-23T22:52:19.394Z,1.80
2022-12-23T22:54:48.046Z,1.30
2022-12-23T22:57:16.266Z,1.73
2022-12-23T22:59:44.243Z,1.77
2022-12-23T23:02:12.130Z,2.28
2022-12-23T23:04:41.558Z,1.27
2022-12-23T23:07:09.716Z,1.73
2022-12-23T23:09:37.450Z,2.10
2022-12-23T23:12:05.863Z,1.50
2022-12-23T23:14:50.582Z,1.55
2022-12-23T23:17:19.136Z,1.50
2022-12-23T23:19:48.923Z,1.42
2022-12-23T23:22:21.555Z,1.25
2022-12-23T23:27:17.462Z,1.05
2022-12-23T23:29:45.708Z,1.20
2022-12-23T23:32:13.942Z,1.40
2022-12-23T23:34:42.099Z,1.20
2022-12-23T23:37:11.203Z,1.50
2022-12-23T23:39:38.877Z,1.88
2022-12-23T23:42:06.828Z,1.30
2022-12-23T23:44:34.584Z,2.00
2022-12-23T23:47:02.333Z,2.08
2022-12-23T23:49:30.024Z,1.17
2022-12-23T23:51:57.747Z,1.30
2022-12-23T23:54:27.149Z,1.33
2022-12-23T23:56:54.856Z,1.40
2022-12-23T23:59:25.602Z,1.80
